createdAt,value
2022-10-23T00:01:49.819Z,10.00
2022-10-23T00:04:23.942Z,9.55
2022-10-23T00:06:50.764Z,11.82
2022-10-23T00:09:23.722Z,13.10
2022-10-23T00:11:52.399Z,8.57
2022-10-23T00:14:22.187Z,10.07
2022-10-23T00:16:48.680Z,11.98
2022-10-23T00:19:15.609Z,9.82
2022-10-23T00:21:42.150Z,12.77
2022-10-23T00:26:36.861Z,13.27
2022-10-23T00:29:03.795Z,10.90
2022-10-23T00:31:30.235Z,13.63
2022-10-23T00:33:56.771Z,8.90
2022-10-23T00:36:23.580Z,10.05
2022-10-23T00:38:50.257Z,11.25
2022-10-23T00:41:23.957Z,10.25
2022-10-23T00:43:59.547Z,12.40
2022-10-23T00:46:26.530Z,14.00
2022-10-23T00:48:53.031Z,12.65
2022-10-23T00:51:19.711Z,12.70
2022-10-23T00:54:01.053Z,8.25
2022-10-23T00:56:39.516Z,8.15
2022-10-23T00:59:06.396Z,11.07
2022-10-23T01:01:33.058Z,12.27
2022-10-23T01:04:01.320Z,10.57
2022-10-23T01:06:42.594Z,9.82
2022-10-23T01:09:27.021Z,10.77
2022-10-23T01:12:01.665Z,12.98
2022-10-23T01:14:37.925Z,6.85
2022-10-23T01:17:12.459Z,10.52
2022-10-23T01:20:02.675Z,10.68
2022-10-23T01:22:34.911Z,16.00
2022-10-23T01:25:23.567Z,10.63
2022-10-23T01:28:00.494Z,14.85
2022-10-23T01:30:27.038Z,11.98
2022-10-23T01:32:53.668Z,10.07
2022-10-23T01:35:29.038Z,8.65
2022-10-23T01:38:03.411Z,12.02
2022-10-23T01:40:34.975Z,11.50
2022-10-23T01:43:10.364Z,13.15
2022-10-23T01:45:44.359Z,13.63
2022-10-23T01:48:15.295Z,11.82
2022-10-23T01:50:43.475Z,14.45
2022-10-23T01:53:10.054Z,11.35
2022-10-23T01:55:39.087Z,12.15
2022-10-23T01:58:07.487Z,12.23
2022-10-23T02:00:38.640Z,11.45
2022-10-23T02:03:08.555Z,10.83
2022-10-23T02:05:35.442Z,11.80
2022-10-23T02:08:02.630Z,9.70
2022-10-23T02:10:38.723Z,11.00
2022-10-23T02:13:24.996Z,8.52
2022-10-23T02:16:29.600Z,13.80
2022-10-23T02:19:04.683Z,13.40
2022-10-23T02:21:50.426Z,13.20
2022-10-23T02:24:23.899Z,11.60
2022-10-23T02:26:57.620Z,10.90
2022-10-23T02:29:37.706Z,9.90
2022-10-23T02:32:05.977Z,14.23
2022-10-23T02:34:32.630Z,12.80
2022-10-23T02:36:59.371Z,14.88
2022-10-23T02:39:27.999Z,15.23
2022-10-23T02:42:02.817Z,12.60
2022-10-23T02:44:43.066Z,11.90
2022-10-23T02:47:30.607Z,10.93
2022-10-23T02:50:10.925Z,15.07
2022-10-23T02:52:55.763Z,15.63
2022-10-23T02:55:37.390Z,14.43
2022-10-23T02:58:12.827Z,7.93
2022-10-23T03:00:54.603Z,12.80
2022-10-23T03:03:29.968Z,13.68
2022-10-23T03:05:56.637Z,15.95
2022-10-23T03:08:23.304Z,11.25
2022-10-23T03:10:49.859Z,9.77
2022-10-23T03:13:16.324Z,15.25
2022-10-23T03:15:43.871Z,17.60
2022-10-23T03:18:10.455Z,14.00
2022-10-23T03:20:36.957Z,11.45
2022-10-23T03:23:03.456Z,12.57
2022-10-23T03:25:29.953Z,9.43
2022-10-23T03:27:56.424Z,10.52
2022-10-23T03:30:23.091Z,7.78
2022-10-23T03:32:49.639Z,13.93
2022-10-23T03:35:16.412Z,13.48
2022-10-23T03:37:43.069Z,12.77
2022-10-23T03:40:10.394Z,13.98
2022-10-23T03:42:36.862Z,16.25
2022-10-23T03:45:03.651Z,11.53
2022-10-23T03:47:30.269Z,19.05
2022-10-23T03:49:56.766Z,13.88
2022-10-23T03:54:54.776Z,11.38
2022-10-23T03:57:21.304Z,10.90
2022-10-23T03:59:47.829Z,13.85
2022-10-23T04:02:14.522Z,13.32
2022-10-23T04:04:41.083Z,12.52
2022-10-23T04:07:07.607Z,19.50
2022-10-23T04:09:34.133Z,14.47
2022-10-23T04:12:00.591Z,18.77
2022-10-23T04:14:27.367Z,17.38
2022-10-23T04:16:53.899Z,13.70
2022-10-23T04:19:20.364Z,8.98
2022-10-23T04:21:46.920Z,15.05
2022-10-23T04:24:13.830Z,17.55
2022-10-23T04:26:40.324Z,12.68
2022-10-23T04:29:06.881Z,17.88
2022-10-23T04:31:33.513Z,13.88
2022-10-23T04:34:00.383Z,20.88
2022-10-23T04:36:26.987Z,23.23
2022-10-23T04:38:53.541Z,18.05
2022-10-23T04:41:20.042Z,11.73
2022-10-23T04:43:46.491Z,25.33
2022-10-23T04:46:13.147Z,22.42
2022-10-23T04:48:39.625Z,18.67
2022-10-23T04:51:06.531Z,14.50
2022-10-23T04:53:33.305Z,16.40
2022-10-23T04:56:00.231Z,17.58
2022-10-23T04:58:28.532Z,14.82
2022-10-23T05:00:55.295Z,18.92
2022-10-23T05:03:23.161Z,22.83
2022-10-23T05:05:53.391Z,14.38
2022-10-23T05:08:20.420Z,15.98
2022-10-23T05:10:48.376Z,21.48
2022-10-23T05:13:14.904Z,13.38
2022-10-23T05:18:35.915Z,17.50
2022-10-23T05:21:14.971Z,13.60
2022-10-23T05:23:44.342Z,24.42
2022-10-23T05:26:10.824Z,19.25
2022-10-23T05:28:37.537Z,17.02
2022-10-23T05:31:05.638Z,13.77
2022-10-23T05:33:33.322Z,21.38
2022-10-23T05:36:01.186Z,13.77
2022-10-23T05:38:32.195Z,17.25
2022-10-23T05:40:58.903Z,21.65
2022-10-23T05:43:25.616Z,15.20
2022-10-23T05:45:52.066Z,14.93
2022-10-23T05:48:33.461Z,14.77
2022-10-23T05:51:08.137Z,21.02
2022-10-23T05:53:36.257Z,23.55
2022-10-23T05:56:09.315Z,23.00
2022-10-23T05:58:35.798Z,24.10
2022-10-23T06:01:11.573Z,17.42
2022-10-23T06:03:39.113Z,23.00
2022-10-23T06:06:07.189Z,20.30
2022-10-23T06:08:34.673Z,18.35
2022-10-23T06:11:12.040Z,23.60
2022-10-23T06:13:38.688Z,21.20
2022-10-23T06:16:24.478Z,22.98
2022-10-23T06:18:51.239Z,34.80
2022-10-23T06:21:18.205Z,16.98
2022-10-23T06:23:46.403Z,18.73
2022-10-23T06:26:15.764Z,14.95
2022-10-23T06:28:42.564Z,15.85
2022-10-23T06:31:11.981Z,19.23
2022-10-23T06:33:38.770Z,16.63
2022-10-23T06:36:06.109Z,22.30
2022-10-23T06:38:32.669Z,15.95
2022-10-23T06:40:59.194Z,17.55
2022-10-23T06:43:25.652Z,15.30
2022-10-23T06:45:52.128Z,21.50
2022-10-23T06:48:18.655Z,20.40
2022-10-23T06:50:45.183Z,21.10
2022-10-23T06:53:12.220Z,20.10
2022-10-23T06:55:39.134Z,17.65
2022-10-23T06:58:07.020Z,22.33
2022-10-23T07:00:33.532Z,20.42
2022-10-23T07:03:00.051Z,16.35
2022-10-23T07:05:26.509Z,21.50
2022-10-23T07:07:52.964Z,33.38
2022-10-23T07:10:19.509Z,20.95
2022-10-23T07:12:46.090Z,23.70
2022-10-23T07:15:12.643Z,12.38
2022-10-23T07:17:39.245Z,18.02
2022-10-23T07:20:06.200Z,20.05
2022-10-23T07:22:32.762Z,17.25
2022-10-23T07:24:59.417Z,15.20
2022-10-23T07:27:26.423Z,16.60
2022-10-23T07:29:53.232Z,20.33
2022-10-23T07:32:20.231Z,17.67
2022-10-23T07:34:46.876Z,17.80
2022-10-23T07:37:13.416Z,17.83
2022-10-23T07:39:40.160Z,14.48
2022-10-23T07:42:06.702Z,14.07
2022-10-23T07:44:33.256Z,17.75
2022-10-23T07:46:59.898Z,21.10
2022-10-23T07:49:26.455Z,26.70
2022-10-23T07:51:53.091Z,24.63
2022-10-23T07:54:19.796Z,18.75
2022-10-23T07:56:46.337Z,24.65
2022-10-23T07:59:13.788Z,23.50
2022-10-23T08:01:41.177Z,26.52
2022-10-23T08:04:09.280Z,15.25
2022-10-23T08:06:36.151Z,20.75
2022-10-23T08:09:06.278Z,18.00
2022-10-23T08:11:34.012Z,26.60
2022-10-23T08:14:02.150Z,18.35
2022-10-23T08:16:28.749Z,15.30
2022-10-23T08:18:55.289Z,21.05
2022-10-23T08:21:21.977Z,24.52
2022-10-23T08:23:48.686Z,22.98
2022-10-23T08:26:15.562Z,27.17
2022-10-23T08:28:42.104Z,15.35
2022-10-23T08:31:11.486Z,22.17
2022-10-23T08:33:39.085Z,11.48
2022-10-23T08:36:06.444Z,26.70
2022-10-23T08:38:33.206Z,20.27
2022-10-23T08:40:59.925Z,23.88
2022-10-23T08:43:45.308Z,25.55
2022-10-23T08:46:17.822Z,16.45
2022-10-23T08:48:57.019Z,15.07
2022-10-23T08:51:38.012Z,15.50
2022-10-23T08:54:25.779Z,17.20
2022-10-23T08:57:03.983Z,17.95
2022-10-23T08:59:38.357Z,19.42
2022-10-23T09:02:17.547Z,15.38
2022-10-23T09:04:48.304Z,18.25
2022-10-23T09:07:56.237Z,24.55
2022-10-23T09:10:48.149Z,21.08
2022-10-23T09:13:53.954Z,20.05
2022-10-23T09:16:32.500Z,20.33
2022-10-23T09:18:59.489Z,51.33
2022-10-23T09:21:29.513Z,23.75
2022-10-23T09:23:56.848Z,22.55
2022-10-23T09:26:23.550Z,18.10
2022-10-23T09:28:52.872Z,16.92
2022-10-23T09:31:19.860Z,17.98
2022-10-23T09:34:00.631Z,22.77
2022-10-23T09:36:28.785Z,12.82
2022-10-23T09:38:59.484Z,20.60
2022-10-23T09:41:38.946Z,15.77
2022-10-23T09:44:08.478Z,15.00
2022-10-23T09:46:43.374Z,17.98
2022-10-23T09:49:20.805Z,14.57
2022-10-23T09:52:02.152Z,13.43
2022-10-23T09:54:32.408Z,20.38
2022-10-23T09:57:04.809Z,11.80
2022-10-23T09:59:32.663Z,11.25
2022-10-23T10:02:02.024Z,14.40
2022-10-23T10:04:37.391Z,10.48
2022-10-23T10:07:06.875Z,16.73
2022-10-23T10:09:33.707Z,14.57
2022-10-23T10:12:23.551Z,13.52
2022-10-23T10:15:26.043Z,14.93
2022-10-23T10:18:20.056Z,19.00
2022-10-23T10:21:20.099Z,18.83
2022-10-23T10:24:18.451Z,14.25
2022-10-23T10:26:58.193Z,11.82
2022-10-23T10:29:42.903Z,11.68
2022-10-23T10:32:57.153Z,12.02
2022-10-23T10:35:45.804Z,12.13
2022-10-23T10:38:47.365Z,14.55
2022-10-23T10:41:37.423Z,17.80
2022-10-23T10:44:32.663Z,17.48
2022-10-23T10:47:10.817Z,16.45
2022-10-23T10:49:55.657Z,15.07
2022-10-23T10:52:46.670Z,14.57
2022-10-23T10:55:32.314Z,12.45
2022-10-23T10:58:10.268Z,12.05
2022-10-23T11:00:37.094Z,9.60
2022-10-23T11:03:28.128Z,10.70
2022-10-23T11:08:29.261Z,9.85
2022-10-23T11:11:03.081Z,9.00
2022-10-23T11:13:38.567Z,15.57
2022-10-23T11:16:15.496Z,6.93
2022-10-23T11:18:47.292Z,18.13
2022-10-23T11:21:28.098Z,13.23
2022-10-23T11:24:03.899Z,9.70
2022-10-23T11:26:36.572Z,9.88
2022-10-23T11:29:18.199Z,7.60
2022-10-23T11:31:56.564Z,11.82
2022-10-23T11:34:40.306Z,10.80
2022-10-23T11:37:07.704Z,9.50
2022-10-23T11:39:36.709Z,9.27
2022-10-23T11:42:06.087Z,10.63
2022-10-23T11:44:41.732Z,16.95
2022-10-23T11:47:30.765Z,8.98
2022-10-23T11:50:08.607Z,11.60
2022-10-23T11:52:50.410Z,10.55
2022-10-23T11:55:31.144Z,10.73
2022-10-23T11:58:19.394Z,14.65
2022-10-23T12:00:57.443Z,12.43
2022-10-23T12:03:39.773Z,12.75
2022-10-23T12:06:07.240Z,13.68
2022-10-23T12:08:37.933Z,9.85
2022-10-23T12:11:04.765Z,9.95
2022-10-23T12:13:45.031Z,9.80
2022-10-23T12:16:12.246Z,10.10
2022-10-23T12:18:48.428Z,10.63
2022-10-23T12:21:23.443Z,14.27
2022-10-23T12:24:21.618Z,7.07
2022-10-23T12:27:24.635Z,9.30
2022-10-23T12:30:01.701Z,10.93
2022-10-23T12:32:34.559Z,12.13
2022-10-23T12:35:07.336Z,10.25
2022-10-23T12:38:11.985Z,9.13
2022-10-23T12:40:38.718Z,9.23
2022-10-23T12:43:25.262Z,9.48
2022-10-23T12:45:52.173Z,9.75
2022-10-23T12:48:20.811Z,5.78
2022-10-23T12:50:56.685Z,9.23
2022-10-23T12:53:23.911Z,8.13
2022-10-23T12:58:34.279Z,7.32
2022-10-23T13:01:07.203Z,11.38
2022-10-23T13:03:35.374Z,7.95
2022-10-23T13:06:03.331Z,10.18
2022-10-23T13:08:39.228Z,12.13
2022-10-23T13:11:06.665Z,20.85
2022-10-23T13:13:33.303Z,16.85
2022-10-23T13:16:00.105Z,12.43
2022-10-23T13:18:26.638Z,7.57
2022-10-23T13:20:53.319Z,7.30
2022-10-23T13:23:26.844Z,6.72
2022-10-23T13:26:25.641Z,10.52
2022-10-23T13:28:52.954Z,8.48
2022-10-23T13:31:29.548Z,12.77
2022-10-23T13:33:59.403Z,9.73
2022-10-23T13:36:30.198Z,12.43
2022-10-23T13:38:59.776Z,10.32
2022-10-23T13:41:29.453Z,11.82
2022-10-23T13:43:56.101Z,12.63
2022-10-23T13:46:24.409Z,12.15
2022-10-23T13:48:51.710Z,5.90
2022-10-23T13:51:22.208Z,6.03
2022-10-23T13:53:49.305Z,14.35
2022-10-23T13:56:18.270Z,13.80
2022-10-23T13:58:44.883Z,14.52
2022-10-23T14:01:35.477Z,30.33
2022-10-23T14:04:03.157Z,11.07
2022-10-23T14:06:30.576Z,11.88
2022-10-23T14:08:57.898Z,12.65
2022-10-23T14:11:25.088Z,8.20
2022-10-23T14:13:51.644Z,8.05
2022-10-23T14:16:20.030Z,11.02
2022-10-23T14:18:47.573Z,13.20
2022-10-23T14:21:16.524Z,5.22
2022-10-23T14:23:43.185Z,12.27
2022-10-23T14:26:12.493Z,16.58
2022-10-23T14:28:39.045Z,21.85
2022-10-23T14:31:07.880Z,19.98
2022-10-23T14:33:34.822Z,14.75
2022-10-23T14:36:01.469Z,17.52
2022-10-23T14:38:28.623Z,13.40
2022-10-23T14:40:55.401Z,14.20
2022-10-23T14:43:23.066Z,9.35
2022-10-23T14:45:49.761Z,11.15
2022-10-23T14:48:16.465Z,12.23
2022-10-23T14:50:45.192Z,11.00
2022-10-23T14:53:11.830Z,10.07
2022-10-23T14:55:38.657Z,10.05
2022-10-23T14:58:05.811Z,13.32
2022-10-23T15:00:32.863Z,9.52
2022-10-23T15:02:59.755Z,11.57
2022-10-23T15:05:26.434Z,7.22
2022-10-23T15:07:52.992Z,11.27
2022-10-23T15:10:19.538Z,13.82
2022-10-23T15:12:46.470Z,6.72
2022-10-23T15:15:13.297Z,11.50
2022-10-23T15:17:39.893Z,9.90
2022-10-23T15:20:06.761Z,9.43
2022-10-23T15:22:33.441Z,7.88
2022-10-23T15:24:59.991Z,14.38
2022-10-23T15:27:26.537Z,13.32
2022-10-23T15:29:53.276Z,19.35
2022-10-23T15:32:19.839Z,6.78
2022-10-23T15:34:46.548Z,16.40
2022-10-23T15:37:13.313Z,10.77
2022-10-23T15:39:39.984Z,10.57
2022-10-23T15:42:06.906Z,12.57
2022-10-23T15:44:34.335Z,14.48
2022-10-23T15:47:01.258Z,15.15
2022-10-23T15:49:28.686Z,16.95
2022-10-23T15:51:55.541Z,15.38
2022-10-23T15:54:22.473Z,8.93
2022-10-23T15:56:52.490Z,18.98
2022-10-23T15:59:21.973Z,11.80
2022-10-23T16:01:48.949Z,13.80
2022-10-23T16:04:15.646Z,14.50
2022-10-23T16:06:43.157Z,15.50
2022-10-23T16:09:09.928Z,14.85
2022-10-23T16:11:38.937Z,13.75
2022-10-23T16:14:06.221Z,19.83
2022-10-23T16:16:33.642Z,15.40
2022-10-23T16:19:02.125Z,23.45
2022-10-23T16:21:31.448Z,14.57
2022-10-23T16:23:59.720Z,24.13
2022-10-23T16:26:27.140Z,21.88
2022-10-23T16:28:55.498Z,23.75
2022-10-23T16:31:23.509Z,30.75
2022-10-23T16:33:51.085Z,26.80
2022-10-23T16:36:18.318Z,35.45
2022-10-23T16:38:44.970Z,31.33
2022-10-23T16:41:11.558Z,26.75
2022-10-23T16:43:38.332Z,27.48
2022-10-23T16:46:07.635Z,26.25
2022-10-23T16:48:34.999Z,25.77
2022-10-23T16:51:08.593Z,26.63
2022-10-23T16:53:35.579Z,23.98
2022-10-23T16:56:07.499Z,27.40
2022-10-23T16:58:35.125Z,29.02
2022-10-23T17:01:05.390Z,27.17
2022-10-23T17:03:40.142Z,28.85
2022-10-23T17:06:11.181Z,33.05
2022-10-23T17:08:39.089Z,36.05
2022-10-23T17:11:15.921Z,35.38
2022-10-23T17:13:53.973Z,27.70
2022-10-23T17:16:36.961Z,22.45
2022-10-23T17:19:16.045Z,25.10
2022-10-23T17:21:47.847Z,31.13
2022-10-23T17:24:14.551Z,30.42
2022-10-23T17:26:41.673Z,30.40
2022-10-23T17:29:10.387Z,29.35
2022-10-23T17:31:39.938Z,29.10
2022-10-23T17:34:10.603Z,32.10
2022-10-23T17:36:40.281Z,39.20
2022-10-23T17:39:08.374Z,27.92
2022-10-23T17:41:35.304Z,34.40
2022-10-23T17:44:02.294Z,32.88
2022-10-23T17:46:29.317Z,31.40
2022-10-23T17:51:35.332Z,29.08
2022-10-23T17:54:05.165Z,28.08
2022-10-23T17:56:34.247Z,23.85
2022-10-23T17:59:07.386Z,24.70
2022-10-23T18:01:34.293Z,23.80
2022-10-23T18:04:02.872Z,28.98
2022-10-23T18:06:32.751Z,20.17
2022-10-23T18:09:01.993Z,23.95
2022-10-23T18:11:32.324Z,26.80
2022-10-23T18:16:31.573Z,23.05
2022-10-23T18:18:59.747Z,21.92
2022-10-23T18:21:26.746Z,24.00
2022-10-23T18:23:53.682Z,30.98
2022-10-23T18:26:26.519Z,21.77
2022-10-23T18:28:55.477Z,27.65
2022-10-23T18:31:21.978Z,22.50
2022-10-23T18:33:48.597Z,22.25
2022-10-23T18:36:23.779Z,19.15
2022-10-23T18:38:50.933Z,22.88
2022-10-23T18:41:18.995Z,18.10
2022-10-23T18:43:46.441Z,20.40
2022-10-23T18:46:13.601Z,12.07
2022-10-23T18:48:41.273Z,15.10
2022-10-23T18:51:16.745Z,15.40
2022-10-23T18:53:44.441Z,11.43
2022-10-23T18:56:10.924Z,12.38
2022-10-23T18:58:37.705Z,8.93
2022-10-23T19:01:04.447Z,9.32
2022-10-23T19:03:31.050Z,9.40
2022-10-23T19:05:57.626Z,12.27
2022-10-23T19:08:24.125Z,18.90
2022-10-23T19:10:52.547Z,10.65
2022-10-23T19:13:19.059Z,13.52
2022-10-23T19:15:45.581Z,9.85
2022-10-23T19:18:12.096Z,7.82
2022-10-23T19:20:41.321Z,7.07
2022-10-23T19:23:07.861Z,9.43
2022-10-23T19:25:35.673Z,10.77
2022-10-23T19:28:03.377Z,9.43
2022-10-23T19:30:30.748Z,6.82
2022-10-23T19:32:57.347Z,7.60
2022-10-23T19:35:24.432Z,8.45
2022-10-23T19:37:50.976Z,7.22
2022-10-23T19:40:17.631Z,7.65
2022-10-23T19:42:44.257Z,9.52
2022-10-23T19:45:13.307Z,8.05
2022-10-23T19:47:40.906Z,9.60
2022-10-23T19:50:09.295Z,8.93
2022-10-23T19:52:36.010Z,8.23
2022-10-23T19:55:02.764Z,6.63
2022-10-23T19:57:29.602Z,7.90
2022-10-23T19:59:56.268Z,15.85
2022-10-23T20:02:23.094Z,8.38
2022-10-23T20:04:49.778Z,9.38
2022-10-23T20:07:16.549Z,7.88
2022-10-23T20:09:43.138Z,7.30
2022-10-23T20:12:10.304Z,20.25
2022-10-23T20:14:36.775Z,8.13
2022-10-23T20:17:03.400Z,7.63
2022-10-23T20:19:30.069Z,8.50
2022-10-23T20:21:56.545Z,9.65
2022-10-23T20:24:23.021Z,7.68
2022-10-23T20:26:54.086Z,7.90
2022-10-23T20:29:21.477Z,8.60
2022-10-23T20:31:48.356Z,7.88
2022-10-23T20:34:15.109Z,8.35
2022-10-23T20:36:46.623Z,11.93
2022-10-23T20:39:17.764Z,9.75
2022-10-23T20:41:44.446Z,8.18
2022-10-23T20:44:13.713Z,8.25
2022-10-23T20:46:40.679Z,8.63
2022-10-23T20:49:07.993Z,8.95
2022-10-23T20:51:34.460Z,8.98
2022-10-23T20:54:01.046Z,8.63
2022-10-23T20:56:30.587Z,8.35
2022-10-23T20:59:18.038Z,8.45
2022-10-23T21:01:49.723Z,8.93
2022-10-23T21:04:18.827Z,7.70
2022-10-23T21:07:08.498Z,9.65
2022-10-23T21:09:31.816Z,8.30
2022-10-23T21:11:58.348Z,7.97
2022-10-23T21:14:24.838Z,10.48
2022-10-23T21:16:51.331Z,8.30
2022-10-23T21:19:17.867Z,8.10
2022-10-23T21:21:44.432Z,7.93
2022-10-23T21:24:15.378Z,7.05
2022-10-23T21:26:42.424Z,7.38
2022-10-23T21:29:25.026Z,8.40
2022-10-23T21:31:56.331Z,6.95
2022-10-23T21:34:24.610Z,8.05
2022-10-23T21:37:11.963Z,8.20
2022-10-23T21:39:37.929Z,8.80
2022-10-23T21:42:04.667Z,6.70
2022-10-23T21:44:31.153Z,8.50
2022-10-23T21:46:57.786Z,7.18
2022-10-23T21:49:24.224Z,8.45
2022-10-23T21:51:50.679Z,8.10
2022-10-23T21:54:17.256Z,7.78
2022-10-23T21:56:49.037Z,7.70
2022-10-23T21:59:19.072Z,8.90
2022-10-23T22:01:47.166Z,7.63
2022-10-23T22:04:15.373Z,7.93
2022-10-23T22:06:43.220Z,8.80
2022-10-23T22:09:12.984Z,13.75
2022-10-23T22:11:39.481Z,6.95
2022-10-23T22:14:06.381Z,9.77
2022-10-23T22:16:33.206Z,7.60
2022-10-23T22:18:59.758Z,8.65
2022-10-23T22:21:28.850Z,7.78
2022-10-23T22:23:58.150Z,7.18
2022-10-23T22:26:26.158Z,9.60
2022-10-23T22:28:54.729Z,9.13
2022-10-23T22:31:23.518Z,10.05
2022-10-23T22:33:50.944Z,9.93
2022-10-23T22:36:17.607Z,12.05
2022-10-23T22:38:44.455Z,7.68
2022-10-23T22:41:11.636Z,9.77
2022-10-23T22:43:38.232Z,10.55
2022-10-23T22:46:16.233Z,8.55
2022-10-23T22:48:43.658Z,10.80
2022-10-23T22:51:15.837Z,9.95
2022-10-23T22:53:43.363Z,8.43
2022-10-23T22:56:13.249Z,9.75
2022-10-23T22:58:40.027Z,9.10
2022-10-23T23:01:14.736Z,8.10
2022-10-23T23:03:41.655Z,10.95
2022-10-23T23:06:09.059Z,10.65
2022-10-23T23:08:37.660Z,10.32
2022-10-23T23:11:05.526Z,12.18
2022-10-23T23:13:32.092Z,10.55
2022-10-23T23:15:59.220Z,10.02
2022-10-23T23:18:26.475Z,13.95
2022-10-23T23:20:52.967Z,11.52
2022-10-23T23:23:20.018Z,10.35
2022-10-23T23:25:48.985Z,9.27
2022-10-23T23:28:18.315Z,10.15
2022-10-23T23:33:17.895Z,8.88
2022-10-23T23:35:46.930Z,7.57
2022-10-23T23:38:13.569Z,8.05
2022-10-23T23:40:40.563Z,10.80
2022-10-23T23:43:07.208Z,10.68
2022-10-23T23:45:33.884Z,11.52
2022-10-23T23:48:00.379Z,10.90
2022-10-23T23:50:27.069Z,10.32
2022-10-23T23:52:53.557Z,13.70
2022-10-23T23:55:20.057Z,13.63
2022-10-23T23:57:46.948Z,11.30
